createdAt,value
2019-06-07T00:01:54.513Z,83.78
2019-06-07T00:05:09.985Z,83.45
2019-06-07T00:08:28.530Z,83.59
2019-06-07T00:11:39.558Z,83.14
2019-06-07T00:14:53.067Z,83.25
2019-06-07T00:18:11.167Z,83.37
2019-06-07T00:22:12.005Z,83.18
2019-06-07T00:24:38.322Z,82.97
2019-06-07T00:27:51.931Z,83.24
2019-06-07T00:31:05.884Z,83.30
2019-06-07T00:34:22.575Z,82.87
2019-06-07T00:37:35.246Z,82.88
2019-06-07T00:40:48.945Z,82.90
2019-06-07T00:44:02.683Z,83.26
2019-06-07T00:47:18.746Z,83.28
2019-06-07T00:50:31.618Z,83.32
2019-06-07T00:53:45.322Z,83.63
2019-06-07T00:56:58.866Z,83.72
2019-06-07T01:00:18.321Z,83.36
2019-06-07T01:03:30.409Z,83.33
2019-06-07T01:06:44.372Z,83.38
2019-06-07T01:09:57.906Z,83.19
2019-06-07T01:13:11.857Z,83.56
2019-06-07T01:16:26.385Z,83.95
2019-06-07T01:19:40.343Z,83.77
2019-06-07T01:22:54.055Z,83.99
2019-06-07T01:26:07.676Z,84.06
2019-06-07T01:29:22.257Z,83.71
2019-06-07T01:32:36.614Z,83.66
2019-06-07T01:35:50.130Z,83.62
2019-06-07T01:39:05.542Z,83.37
2019-06-07T01:42:20.383Z,83.80
2019-06-07T01:45:34.938Z,83.81
2019-06-07T01:48:49.800Z,83.69
2019-06-07T01:52:03.774Z,83.73
2019-06-07T01:55:18.811Z,83.93
2019-06-07T01:58:32.835Z,83.72
2019-06-07T02:01:46.361Z,83.81
2019-06-07T02:04:59.972Z,84.01
2019-06-07T02:08:13.681Z,83.86
2019-06-07T02:11:29.321Z,83.45
2019-06-07T02:14:43.020Z,83.58
2019-06-07T02:17:56.580Z,83.97
2019-06-07T02:21:10.445Z,83.48
2019-06-07T02:24:25.253Z,83.42
2019-06-07T02:27:39.382Z,83.34
2019-06-07T02:30:59.910Z,83.37
2019-06-07T02:34:08.396Z,83.05
2019-06-07T02:37:24.203Z,83.16
2019-06-07T02:40:37.768Z,83.30
2019-06-07T02:43:51.373Z,83.66
2019-06-07T02:47:05.122Z,83.46
2019-06-07T02:50:20.834Z,83.51
2019-06-07T02:53:40.136Z,83.68
2019-06-07T02:56:58.167Z,83.75
2019-06-07T03:00:27.351Z,83.75
2019-06-07T03:03:22.321Z,84.16
2019-06-07T03:06:42.789Z,84.35
2019-06-07T03:09:54.885Z,85.02
2019-06-07T03:13:11.228Z,85.15
2019-06-07T03:16:33.515Z,84.39
2019-06-07T03:19:47.806Z,84.58
2019-06-07T03:23:03.559Z,85.05
2019-06-07T03:26:17.585Z,84.65
2019-06-07T03:29:32.270Z,84.85
2019-06-07T03:32:48.400Z,84.77
2019-06-07T03:36:22.928Z,85.38
2019-06-07T03:39:18.463Z,85.47
2019-06-07T03:42:34.826Z,86.01
2019-06-07T03:45:48.128Z,86.58
2019-06-07T03:49:02.372Z,86.65
2019-06-07T03:52:16.070Z,86.44
2019-06-07T03:55:30.448Z,86.80
2019-06-07T03:58:49.677Z,86.59
2019-06-07T04:02:01.148Z,86.04
2019-06-07T04:05:14.775Z,86.10
2019-06-07T04:08:28.382Z,86.35
2019-06-07T04:11:41.888Z,86.54
2019-06-07T04:14:55.677Z,86.86
2019-06-07T04:18:09.401Z,86.86
2019-06-07T04:21:22.928Z,86.93
2019-06-07T04:24:40.208Z,86.91
2019-06-07T04:27:52.792Z,86.75
2019-06-07T04:31:07.071Z,86.80
2019-06-07T04:34:21.005Z,86.69
2019-06-07T04:37:39.670Z,86.49
2019-06-07T04:40:52.791Z,86.43
2019-06-07T04:44:08.006Z,86.42
2019-06-07T04:47:25.167Z,86.64
2019-06-07T04:50:43.457Z,86.51
2019-06-07T04:53:54.188Z,86.74
2019-06-07T04:57:07.700Z,86.95
2019-06-07T05:03:44.650Z,88.43
2019-06-07T05:06:58.163Z,88.17
2019-06-07T05:10:11.974Z,88.53
2019-06-07T05:16:43.697Z,88.52
2019-06-07T05:19:55.320Z,88.59
2019-06-07T05:23:08.925Z,88.33
2019-06-07T05:26:22.786Z,88.43
2019-06-07T05:29:37.223Z,88.43
2019-06-07T05:32:51.725Z,88.09
2019-06-07T05:36:05.789Z,88.10
2019-06-07T05:39:19.560Z,87.77
2019-06-07T05:42:37.019Z,87.85
2019-06-07T05:45:49.260Z,87.62
2019-06-07T05:49:03.158Z,87.21
2019-06-07T05:52:17.136Z,86.76
2019-06-07T05:55:30.808Z,86.61
2019-06-07T05:58:44.806Z,86.46
2019-06-07T06:02:05.017Z,86.45
2019-06-07T06:05:32.530Z,86.11
2019-06-07T06:08:30.131Z,85.86
2019-06-07T06:11:59.718Z,85.34
2019-06-07T06:15:03.113Z,85.65
2019-06-07T06:18:16.961Z,85.58
2019-06-07T06:21:30.916Z,84.70
2019-06-07T06:25:17.149Z,85.12
2019-06-07T06:28:10.849Z,85.67
2019-06-07T06:31:15.636Z,86.05
2019-06-07T06:34:29.435Z,85.51
2019-06-07T06:37:47.133Z,85.01
2019-06-07T06:41:14.655Z,84.53
2019-06-07T06:44:14.401Z,85.02
2019-06-07T06:47:28.641Z,85.20
2019-06-07T06:50:44.400Z,84.91
2019-06-07T06:53:57.710Z,84.35
2019-06-07T06:57:19.795Z,83.11
2019-06-07T07:01:05.305Z,82.88
2019-06-07T07:04:12.772Z,81.65
2019-06-07T07:07:25.045Z,80.43
2019-06-07T07:10:40.733Z,79.66
2019-06-07T07:13:56.906Z,76.60
2019-06-07T07:17:10.694Z,75.76
2019-06-07T07:20:24.792Z,75.73
2019-06-07T07:23:38.544Z,76.17
2019-06-07T07:26:53.925Z,75.55
2019-06-07T07:30:36.075Z,75.25
2019-06-07T07:33:25.053Z,74.37
2019-06-07T07:36:40.033Z,74.14
2019-06-07T07:40:01.169Z,73.37
2019-06-07T07:43:09.514Z,72.09
2019-06-07T07:46:29.536Z,70.71
2019-06-07T07:49:38.777Z,71.10
2019-06-07T07:52:56.028Z,70.12
2019-06-07T07:56:08.340Z,70.93
2019-06-07T07:59:40.743Z,69.31
2019-06-07T08:02:37.833Z,69.24
2019-06-07T08:05:54.008Z,70.26
2019-06-07T08:09:07.309Z,69.47
2019-06-07T08:12:21.261Z,70.44
2019-06-07T08:15:34.986Z,69.70
2019-06-07T08:18:51.323Z,69.99
2019-06-07T08:22:04.358Z,68.23
2019-06-07T08:25:18.489Z,67.89
2019-06-07T08:28:32.147Z,68.33
2019-06-07T08:31:45.903Z,68.77
2019-06-07T08:35:05.860Z,69.38
2019-06-07T08:38:26.742Z,67.75
2019-06-07T08:41:31.186Z,68.78
2019-06-07T08:44:44.686Z,69.18
2019-06-07T08:48:09.131Z,69.77
2019-06-07T08:51:13.775Z,67.22
2019-06-07T08:54:27.391Z,67.87
2019-06-07T08:57:41.145Z,65.84
2019-06-07T09:00:58.097Z,66.72
2019-06-07T09:04:11.288Z,67.50
2019-06-07T09:07:25.239Z,65.16
2019-06-07T09:10:38.831Z,64.37
2019-06-07T09:13:54.469Z,64.14
2019-06-07T09:17:12.056Z,64.45
2019-06-07T09:20:36.887Z,66.17
2019-06-07T09:23:44.065Z,64.68
2019-06-07T09:27:00.238Z,65.36
2019-06-07T09:30:18.789Z,65.21
2019-06-07T09:33:31.722Z,64.64
2019-06-07T09:36:45.772Z,62.92
2019-06-07T09:40:10.736Z,61.71
2019-06-07T09:46:31.083Z,61.95
2019-06-07T09:49:44.906Z,61.90
2019-06-07T09:53:10.551Z,62.11
2019-06-07T09:56:14.019Z,61.38
2019-06-07T09:59:28.287Z,60.57
2019-06-07T10:02:42.016Z,61.71
2019-06-07T10:05:55.574Z,60.89
2019-06-07T10:12:25.290Z,59.00
2019-06-07T10:15:39.127Z,61.85
2019-06-07T10:18:52.823Z,62.39
2019-06-07T10:22:07.810Z,60.26
2019-06-07T10:25:24.623Z,60.72
2019-06-07T10:32:30.463Z,59.45
2019-06-07T10:35:44.433Z,59.06
2019-06-07T10:38:58.093Z,58.27
2019-06-07T10:42:11.855Z,58.15
2019-06-07T10:45:25.440Z,57.78
2019-06-07T10:48:39.113Z,54.77
2019-06-07T10:51:52.894Z,55.70
2019-06-07T10:55:06.835Z,56.39
2019-06-07T10:58:20.481Z,54.81
2019-06-07T11:01:34.060Z,54.62
2019-06-07T11:04:47.563Z,56.13
2019-06-07T11:08:01.356Z,55.68
2019-06-07T11:11:15.169Z,55.27
2019-06-07T11:14:28.674Z,56.06
2019-06-07T11:17:42.341Z,56.66
2019-06-07T11:20:55.851Z,54.35
2019-06-07T11:24:10.165Z,54.23
2019-06-07T11:27:24.025Z,54.96
2019-06-07T11:30:37.794Z,52.90
2019-06-07T11:33:51.423Z,51.22
2019-06-07T11:37:07.188Z,51.70
2019-06-07T11:40:35.292Z,52.04
2019-06-07T11:43:37.430Z,50.98
2019-06-07T11:46:51.402Z,48.04
2019-06-07T11:50:05.192Z,51.48
2019-06-07T11:53:19.992Z,51.51
2019-06-07T11:56:36.220Z,50.06
2019-06-07T11:59:49.914Z,48.22
2019-06-07T12:03:03.586Z,49.07
2019-06-07T12:06:18.118Z,49.76
2019-06-07T12:09:32.036Z,49.90
2019-06-07T12:16:39.986Z,49.46
2019-06-07T12:19:53.589Z,49.62
2019-06-07T12:23:07.229Z,48.39
2019-06-07T12:26:20.945Z,48.21
2019-06-07T12:29:34.727Z,48.31
2019-06-07T12:32:48.281Z,48.98
2019-06-07T12:36:02.361Z,48.30
2019-06-07T12:39:16.110Z,45.70
2019-06-07T12:42:30.102Z,46.32
2019-06-07T12:45:45.406Z,46.74
2019-06-07T12:48:59.364Z,47.23
2019-06-07T12:52:14.649Z,46.28
2019-06-07T12:55:28.705Z,48.30
2019-06-07T12:58:42.642Z,47.98
2019-06-07T13:02:01.830Z,45.00
2019-06-07T13:05:12.402Z,44.87
2019-06-07T13:08:26.427Z,45.84
2019-06-07T13:11:40.064Z,46.09
2019-06-07T13:14:53.596Z,46.17
2019-06-07T13:18:07.332Z,46.64
2019-06-07T13:21:22.277Z,46.65
2019-06-07T13:24:36.522Z,45.15
2019-06-07T13:27:51.970Z,45.62
2019-06-07T13:31:05.977Z,46.31
2019-06-07T13:34:20.499Z,45.25
2019-06-07T13:37:36.488Z,44.50
2019-06-07T13:40:50.184Z,46.29
2019-06-07T13:44:45.852Z,46.68
2019-06-07T13:47:59.810Z,44.98
2019-06-07T13:51:13.718Z,46.07
2019-06-07T13:54:27.841Z,44.25
2019-06-07T13:57:41.547Z,44.25
2019-06-07T14:00:55.154Z,45.57
2019-06-07T14:04:09.250Z,45.33
2019-06-07T14:07:23.596Z,45.04
2019-06-07T14:10:38.691Z,45.14
2019-06-07T14:13:52.622Z,44.67
2019-06-07T14:17:06.423Z,44.49
2019-06-07T14:20:26.672Z,46.25
2019-06-07T14:23:48.354Z,46.63
2019-06-07T14:27:05.810Z,45.55
2019-06-07T14:30:21.684Z,44.81
2019-06-07T14:33:35.647Z,44.45
2019-06-07T14:36:49.424Z,44.04
2019-06-07T14:40:04.070Z,44.90
2019-06-07T14:43:17.986Z,45.55
2019-06-07T14:46:32.160Z,46.90
2019-06-07T14:49:46.408Z,47.44
2019-06-07T14:53:00.320Z,48.58
2019-06-07T14:56:13.859Z,48.84
2019-06-07T14:59:28.320Z,49.60
2019-06-07T15:02:42.023Z,49.43
2019-06-07T15:05:55.936Z,49.96
2019-06-07T15:09:09.722Z,51.46
2019-06-07T15:12:25.451Z,53.34
2019-06-07T15:15:39.053Z,58.20
2019-06-07T15:18:52.605Z,62.99
2019-06-07T15:22:06.498Z,69.51
2019-06-07T15:25:20.129Z,72.92
2019-06-07T15:28:34.171Z,77.04
2019-06-07T15:31:48.150Z,75.83
2019-06-07T15:35:01.922Z,80.47
2019-06-07T15:38:15.745Z,85.79
2019-06-07T15:41:30.959Z,88.05
2019-06-07T15:44:44.549Z,88.41
2019-06-07T15:47:58.462Z,91.27
2019-06-07T15:51:12.410Z,91.73
2019-06-07T15:54:25.965Z,92.56
2019-06-07T15:57:41.537Z,92.40
2019-06-07T16:00:55.444Z,91.17
2019-06-07T16:04:09.221Z,91.63
2019-06-07T16:07:23.166Z,91.41
2019-06-07T16:10:37.084Z,90.45
2019-06-07T16:13:57.571Z,90.42
2019-06-07T16:17:25.028Z,90.51
2019-06-07T16:20:47.932Z,80.94
2019-06-07T16:24:04.088Z,85.08
2019-06-07T16:27:22.523Z,81.42
2019-06-07T16:31:09.334Z,76.12
2019-06-07T16:34:27.805Z,77.71
2019-06-07T16:37:43.045Z,75.64
2019-06-07T16:41:00.001Z,75.36
2019-06-07T16:44:15.935Z,79.22
2019-06-07T16:47:31.167Z,79.38
2019-06-07T16:50:47.220Z,77.90
2019-06-07T16:54:02.643Z,77.45
2019-06-07T16:57:17.651Z,74.16
2019-06-07T17:00:35.010Z,75.16
2019-06-07T17:03:49.839Z,71.83
2019-06-07T17:07:05.561Z,73.10
2019-06-07T17:10:20.464Z,75.54
2019-06-07T17:13:36.789Z,74.16
2019-06-07T17:16:52.159Z,77.55
2019-06-07T17:20:08.264Z,83.50
2019-06-07T17:23:24.692Z,80.80
2019-06-07T17:26:39.595Z,84.31
2019-06-07T17:29:56.560Z,82.22
2019-06-07T17:33:12.916Z,81.92
2019-06-07T17:36:29.436Z,86.12
2019-06-07T17:39:44.993Z,85.40
2019-06-07T17:43:01.128Z,84.10
2019-06-07T17:46:16.793Z,83.78
2019-06-07T17:49:31.973Z,83.03
2019-06-07T17:52:47.922Z,83.72
2019-06-07T17:56:02.843Z,84.32
2019-06-07T17:59:18.543Z,85.08
2019-06-07T18:02:34.249Z,84.17
2019-06-07T18:05:49.391Z,83.89
2019-06-07T18:09:07.039Z,83.85
2019-06-07T18:12:22.963Z,85.64
2019-06-07T18:15:39.048Z,84.37
2019-06-07T18:18:54.856Z,86.16
2019-06-07T18:22:09.611Z,85.90
2019-06-07T18:25:25.429Z,82.95
2019-06-07T18:28:40.567Z,83.40
2019-06-07T18:31:55.759Z,80.40
2019-06-07T18:35:10.708Z,83.48
2019-06-07T18:38:25.613Z,85.04
2019-06-07T18:41:40.254Z,82.80
2019-06-07T18:44:55.511Z,85.73
2019-06-07T18:48:10.593Z,84.47
2019-06-07T18:51:25.894Z,87.02
2019-06-07T18:54:41.060Z,88.67
2019-06-07T18:57:56.507Z,87.09
2019-06-07T19:01:12.149Z,84.57
2019-06-07T19:04:28.559Z,85.78
2019-06-07T19:07:43.213Z,87.43
2019-06-07T19:10:58.996Z,85.63
2019-06-07T19:14:13.689Z,84.21
2019-06-07T19:17:29.278Z,84.50
2019-06-07T19:20:44.126Z,85.60
2019-06-07T19:24:00.104Z,84.63
2019-06-07T19:27:17.227Z,84.18
2019-06-07T19:30:32.300Z,83.03
2019-06-07T19:33:49.307Z,83.41
2019-06-07T19:37:05.024Z,82.96
2019-06-07T19:40:20.774Z,82.14
2019-06-07T19:43:35.682Z,84.58
2019-06-07T19:46:52.201Z,85.80
2019-06-07T19:50:09.717Z,81.15
2019-06-07T19:53:25.895Z,82.74
2019-06-07T19:56:40.761Z,85.26
2019-06-07T19:59:55.551Z,82.69
2019-06-07T20:03:10.912Z,82.21
2019-06-07T20:06:25.900Z,83.78
2019-06-07T20:09:40.636Z,82.15
2019-06-07T20:12:56.590Z,82.57
2019-06-07T20:16:11.800Z,79.39
2019-06-07T20:19:26.844Z,82.19
2019-06-07T20:22:41.823Z,79.96
2019-06-07T20:25:56.689Z,80.95
2019-06-07T20:29:25.535Z,82.17
2019-06-07T20:32:29.660Z,81.19
2019-06-07T20:35:44.917Z,78.63
2019-06-07T20:39:00.174Z,78.37
2019-06-07T20:42:16.275Z,78.77
2019-06-07T20:45:33.930Z,77.48
2019-06-07T20:48:49.365Z,75.25
2019-06-07T20:52:04.886Z,75.13
2019-06-07T20:55:20.282Z,73.77
2019-06-07T20:58:35.321Z,71.88
2019-06-07T21:01:52.154Z,71.94
2019-06-07T21:05:07.900Z,72.25
2019-06-07T21:08:22.914Z,71.26
2019-06-07T21:11:38.651Z,70.14
2019-06-07T21:16:44.608Z,71.25
2019-06-07T21:20:00.541Z,70.52
2019-06-07T21:23:15.452Z,71.89
2019-06-07T21:26:30.493Z,72.00
2019-06-07T21:29:45.288Z,71.09
2019-06-07T21:33:01.354Z,72.39
2019-06-07T21:36:16.975Z,71.47
2019-06-07T21:39:32.126Z,72.23
2019-06-07T21:42:47.079Z,73.37
2019-06-07T21:46:07.237Z,71.72
2019-06-07T21:49:19.582Z,72.03
2019-06-07T21:52:34.282Z,72.40
2019-06-07T21:55:49.089Z,72.11
2019-06-07T21:59:05.055Z,71.17
2019-06-07T22:02:21.143Z,71.64
2019-06-07T22:05:36.156Z,72.50
2019-06-07T22:08:51.056Z,73.18
2019-06-07T22:12:10.038Z,71.84
2019-06-07T22:15:34.046Z,71.85
2019-06-07T22:18:42.708Z,72.43
2019-06-07T22:22:02.783Z,72.05
2019-06-07T22:25:15.899Z,71.78
2019-06-07T22:28:30.752Z,71.22
2019-06-07T22:31:46.233Z,70.85
2019-06-07T22:35:01.321Z,71.18
2019-06-07T22:38:16.183Z,70.50
2019-06-07T22:41:30.928Z,71.57
2019-06-07T22:44:45.697Z,71.45
2019-06-07T22:48:00.877Z,70.16
2019-06-07T22:51:16.486Z,70.25
2019-06-07T22:54:32.838Z,71.12
2019-06-07T22:57:56.992Z,70.75
2019-06-07T23:01:12.553Z,70.29
2019-06-07T23:04:27.766Z,69.64
2019-06-07T23:07:42.504Z,69.84
2019-06-07T23:10:57.377Z,69.57
2019-06-07T23:14:13.462Z,68.65
2019-06-07T23:17:28.068Z,67.93
2019-06-07T23:20:43.205Z,69.15
2019-06-07T23:23:58.050Z,68.64
2019-06-07T23:27:14.480Z,67.20
2019-06-07T23:30:31.173Z,66.53
2019-06-07T23:33:46.060Z,66.64
2019-06-07T23:37:00.850Z,66.13
2019-06-07T23:40:17.402Z,66.78
2019-06-07T23:43:33.269Z,66.02
2019-06-07T23:46:48.388Z,65.27
2019-06-07T23:50:03.618Z,66.19
2019-06-07T23:53:19.992Z,67.22
2019-06-07T23:56:34.851Z,66.47
2019-06-07T23:59:49.599Z,66.65
